createdAt,value
2016-10-26T00:00:50.591Z,924.71
2016-10-26T00:02:02.675Z,924.68
2016-10-26T00:03:15.702Z,924.73
2016-10-26T00:04:28.198Z,924.76
2016-10-26T00:05:41.795Z,924.79
2016-10-26T00:06:54.809Z,924.79
2016-10-26T00:08:07.818Z,924.76
2016-10-26T00:09:20.876Z,924.76
2016-10-26T00:10:33.884Z,924.78
2016-10-26T00:11:47.420Z,924.74
2016-10-26T00:13:00.975Z,924.74
2016-10-26T00:14:13.510Z,924.69
2016-10-26T00:15:25.508Z,924.75
2016-10-26T00:16:39.096Z,924.75
2016-10-26T00:17:51.654Z,924.77
2016-10-26T00:19:04.215Z,924.83
2016-10-26T00:20:17.811Z,924.85
2016-10-26T00:21:31.451Z,924.84
2016-10-26T00:22:44.471Z,924.81
2016-10-26T00:23:57.003Z,924.78
2016-10-26T00:25:09.975Z,924.81
2016-10-26T00:26:23.042Z,924.82
2016-10-26T00:27:35.023Z,924.85
2016-10-26T00:28:48.068Z,924.81
2016-10-26T00:30:00.582Z,924.79
2016-10-26T00:31:14.137Z,924.8
2016-10-26T00:32:27.139Z,924.79
2016-10-26T00:33:39.123Z,924.79
2016-10-26T00:34:52.239Z,924.86
2016-10-26T00:36:04.767Z,924.85
2016-10-26T00:37:16.748Z,924.83
2016-10-26T00:38:28.265Z,924.84
2016-10-26T00:39:41.269Z,924.85
2016-10-26T00:40:54.304Z,924.88
2016-10-26T00:42:07.447Z,924.88
2016-10-26T00:43:20.482Z,924.97
2016-10-26T00:44:32.988Z,924.93
2016-10-26T00:45:45.515Z,924.98
2016-10-26T00:46:57.431Z,924.97
2016-10-26T00:48:10.501Z,924.97
2016-10-26T00:49:23.575Z,924.95
2016-10-26T00:50:36.574Z,924.99
2016-10-26T00:51:49.606Z,924.94
2016-10-26T00:53:03.112Z,924.95
2016-10-26T00:54:16.666Z,924.88
2016-10-26T00:55:29.083Z,924.92
2016-10-26T00:56:42.192Z,924.9
2016-10-26T00:57:54.670Z,924.89
2016-10-26T00:59:07.616Z,924.92
2016-10-26T01:00:20.078Z,925.01
2016-10-26T01:01:33.043Z,925.04
2016-10-26T01:02:46.515Z,925.04
2016-10-26T01:03:58.427Z,925.05
2016-10-26T01:05:11.484Z,925.09
2016-10-26T01:06:23.955Z,925.06
2016-10-26T01:07:36.446Z,925.07
2016-10-26T01:08:49.958Z,925.09
2016-10-26T01:10:03.508Z,925.12
2016-10-26T01:11:17.118Z,925.12
2016-10-26T01:12:29.702Z,925.13
2016-10-26T01:13:42.191Z,925.11
2016-10-26T01:14:55.221Z,925.13
2016-10-26T01:16:08.697Z,925.15
2016-10-26T01:17:21.715Z,925.12
2016-10-26T01:18:35.243Z,925.14
2016-10-26T01:19:48.180Z,925.13
2016-10-26T01:21:00.739Z,925.15
2016-10-26T01:22:13.736Z,925.16
2016-10-26T01:23:27.247Z,925.18
2016-10-26T01:24:40.334Z,925.13
2016-10-26T01:25:53.367Z,925.11
2016-10-26T01:27:06.950Z,925.13
2016-10-26T01:28:20.459Z,925.11
2016-10-26T01:29:33.447Z,925.07
2016-10-26T01:30:46.487Z,925.06
2016-10-26T01:31:59.032Z,925.07
2016-10-26T01:33:12.289Z,925.05
2016-10-26T01:34:25.354Z,925.07
2016-10-26T01:35:39.027Z,925.02
2016-10-26T01:36:52.110Z,925.04
2016-10-26T01:38:04.654Z,925.03
2016-10-26T01:39:18.181Z,924.97
2016-10-26T01:40:31.265Z,925.01
2016-10-26T01:41:44.882Z,925.01
2016-10-26T01:42:57.459Z,924.99
2016-10-26T01:44:10.011Z,924.96
2016-10-26T01:45:23.211Z,925
2016-10-26T01:46:36.584Z,924.95
2016-10-26T01:47:48.579Z,924.93
2016-10-26T01:49:01.702Z,924.97
2016-10-26T01:50:14.245Z,924.97
2016-10-26T01:51:27.823Z,924.96
2016-10-26T01:52:41.361Z,924.96
2016-10-26T01:53:53.359Z,924.93
2016-10-26T01:55:07.008Z,924.98
2016-10-26T01:56:20.693Z,924.92
2016-10-26T01:57:33.226Z,924.9
2016-10-26T01:58:46.254Z,924.94
2016-10-26T01:59:59.317Z,924.9
2016-10-26T02:01:12.873Z,924.86
2016-10-26T02:02:25.403Z,924.83
2016-10-26T02:03:38.584Z,924.83
2016-10-26T02:04:51.698Z,924.83
2016-10-26T02:06:04.262Z,924.8
2016-10-26T02:08:58.820Z,924.79
2016-10-26T02:10:10.844Z,924.81
2016-10-26T02:11:24.469Z,924.79
2016-10-26T02:12:37.502Z,924.76
2016-10-26T02:13:51.143Z,924.75
2016-10-26T02:15:04.718Z,924.77
2016-10-26T02:16:18.237Z,924.71
2016-10-26T02:17:32.746Z,924.68
2016-10-26T02:18:45.799Z,924.68
2016-10-26T02:19:58.338Z,924.67
2016-10-26T02:21:10.997Z,924.69
2016-10-26T02:22:24.072Z,924.67
2016-10-26T02:23:37.083Z,924.64
2016-10-26T02:24:50.629Z,924.62
2016-10-26T02:26:04.238Z,924.58
2016-10-26T02:27:17.322Z,924.58
2016-10-26T02:28:30.324Z,924.49
2016-10-26T02:29:43.366Z,924.51
2016-10-26T02:30:55.951Z,924.5
2016-10-26T02:32:09.548Z,924.44
2016-10-26T02:33:23.087Z,924.43
2016-10-26T02:34:36.706Z,924.45
2016-10-26T02:35:49.274Z,924.35
2016-10-26T02:37:01.940Z,924.37
2016-10-26T02:38:13.977Z,924.35
2016-10-26T02:39:26.472Z,924.37
2016-10-26T02:40:40.039Z,924.32
2016-10-26T02:41:53.654Z,924.33
2016-10-26T02:43:06.804Z,924.35
2016-10-26T02:44:19.295Z,924.31
2016-10-26T02:45:32.348Z,924.3
2016-10-26T02:46:45.405Z,924.32
2016-10-26T02:47:58.475Z,924.4
2016-10-26T02:49:10.485Z,924.31
2016-10-26T02:50:22.999Z,924.31
2016-10-26T02:51:35.988Z,924.35
2016-10-26T02:52:48.554Z,924.28
2016-10-26T02:54:02.168Z,924.28
2016-10-26T02:55:15.786Z,924.22
2016-10-26T02:56:29.366Z,924.27
2016-10-26T02:57:42.961Z,924.3
2016-10-26T02:58:56.003Z,924.23
2016-10-26T03:00:08.542Z,924.22
2016-10-26T03:01:22.096Z,924.23
2016-10-26T03:02:34.730Z,924.32
2016-10-26T03:03:48.334Z,924.27
2016-10-26T03:05:01.406Z,924.31
2016-10-26T03:06:15.035Z,924.17
2016-10-26T03:07:28.648Z,924.19
2016-10-26T03:08:41.687Z,924.18
2016-10-26T03:09:54.837Z,924.18
2016-10-26T03:11:08.457Z,924.16
2016-10-26T03:12:22.082Z,924.12
2016-10-26T03:13:34.585Z,924.13
2016-10-26T03:14:47.082Z,924.17
2016-10-26T03:16:00.153Z,924.11
2016-10-26T03:17:13.193Z,924.12
2016-10-26T03:18:25.762Z,924.09
2016-10-26T03:19:39.337Z,924.13
2016-10-26T03:20:52.427Z,924.13
2016-10-26T03:22:05.516Z,924.12
2016-10-26T03:23:19.113Z,924.19
2016-10-26T03:24:32.291Z,924.04
2016-10-26T03:25:45.363Z,924.09
2016-10-26T03:26:58.406Z,924.05
2016-10-26T03:28:09.885Z,924.04
2016-10-26T03:29:22.374Z,924.1
2016-10-26T03:30:34.925Z,924.1
2016-10-26T03:31:48.503Z,924.04
2016-10-26T03:33:02.139Z,924.02
2016-10-26T03:34:14.698Z,924.1
2016-10-26T03:35:28.285Z,924.02
2016-10-26T03:36:41.322Z,924.07
2016-10-26T03:37:54.864Z,924.06
2016-10-26T03:39:06.900Z,924.1
2016-10-26T03:40:20.031Z,924.01
2016-10-26T03:41:33.630Z,924.02
2016-10-26T03:42:47.231Z,924.01
2016-10-26T03:44:00.728Z,923.96
2016-10-26T03:45:13.798Z,923.91
2016-10-26T03:46:26.843Z,923.91
2016-10-26T03:47:39.874Z,923.9
2016-10-26T03:48:53.025Z,923.83
2016-10-26T03:50:05.551Z,923.76
2016-10-26T03:51:18.609Z,923.74
2016-10-26T03:52:31.650Z,923.73
2016-10-26T03:53:44.788Z,923.76
2016-10-26T03:54:57.960Z,923.7
2016-10-26T03:56:09.939Z,923.7
2016-10-26T03:57:22.942Z,923.64
2016-10-26T03:58:35.497Z,923.64
2016-10-26T03:59:48.013Z,923.59
2016-10-26T04:01:01.033Z,923.6
2016-10-26T04:02:14.028Z,923.56
2016-10-26T04:03:27.615Z,923.54
2016-10-26T04:04:40.746Z,923.54
2016-10-26T04:05:53.261Z,923.54
2016-10-26T04:07:06.383Z,923.52
2016-10-26T04:08:18.934Z,923.56
2016-10-26T04:09:32.490Z,923.5
2016-10-26T04:10:45.475Z,923.44
2016-10-26T04:11:58.585Z,923.51
2016-10-26T04:13:12.169Z,923.45
2016-10-26T04:14:25.195Z,923.43
2016-10-26T04:15:38.206Z,923.44
2016-10-26T04:16:50.207Z,923.42
2016-10-26T04:18:03.237Z,923.42
2016-10-26T04:19:15.764Z,923.4
2016-10-26T04:20:29.345Z,923.39
2016-10-26T04:21:42.951Z,923.41
2016-10-26T04:22:55.989Z,923.4
2016-10-26T04:24:09.041Z,923.52
2016-10-26T04:25:22.601Z,923.42
2016-10-26T04:26:35.155Z,923.46
2016-10-26T04:27:47.670Z,923.41
2016-10-26T04:29:00.737Z,923.44
2016-10-26T04:30:13.848Z,923.42
2016-10-26T04:31:26.315Z,923.46
2016-10-26T04:32:39.874Z,923.44
2016-10-26T04:33:52.977Z,923.44
2016-10-26T04:35:06.063Z,923.42
2016-10-26T04:36:19.682Z,923.41
2016-10-26T04:37:32.741Z,923.36
2016-10-26T04:38:45.725Z,923.38
2016-10-26T04:39:58.744Z,923.3
2016-10-26T04:41:12.276Z,923.33
2016-10-26T04:42:25.866Z,923.23
2016-10-26T04:43:38.470Z,923.22
2016-10-26T04:44:51.561Z,923.14
2016-10-26T04:46:05.150Z,923.15
2016-10-26T04:47:18.254Z,923.14
2016-10-26T04:48:31.894Z,923.11
2016-10-26T04:49:44.367Z,923.1
2016-10-26T04:50:57.986Z,923.03
2016-10-26T04:52:11.531Z,923.07
2016-10-26T04:53:23.985Z,923.03
2016-10-26T04:54:37.573Z,923.05
2016-10-26T04:55:51.134Z,922.99
2016-10-26T04:57:04.202Z,923.01
2016-10-26T04:58:17.316Z,923
2016-10-26T04:59:30.926Z,923.03
2016-10-26T05:00:44.521Z,923.09
2016-10-26T05:01:58.114Z,923.04
2016-10-26T05:03:10.693Z,923.07
2016-10-26T05:04:23.731Z,923.04
2016-10-26T05:05:36.247Z,923.08
2016-10-26T05:06:49.856Z,923.05
2016-10-26T05:08:02.375Z,923.02
2016-10-26T05:09:15.434Z,923.03
2016-10-26T05:10:28.392Z,922.97
2016-10-26T05:11:42.020Z,922.97
2016-10-26T05:12:55.635Z,922.9
2016-10-26T05:14:08.685Z,922.92
2016-10-26T05:15:22.299Z,922.92
2016-10-26T05:16:35.866Z,922.91
2016-10-26T05:17:49.462Z,922.88
2016-10-26T05:19:02.520Z,922.89
2016-10-26T05:20:15.600Z,922.88
2016-10-26T05:21:28.640Z,922.81
2016-10-26T05:22:42.252Z,922.8
2016-10-26T05:23:55.765Z,922.83
2016-10-26T05:25:09.309Z,922.77
2016-10-26T05:26:20.767Z,922.81
2016-10-26T05:27:34.301Z,922.75
2016-10-26T05:28:47.847Z,922.73
2016-10-26T05:30:00.839Z,922.71
2016-10-26T05:31:13.876Z,922.66
2016-10-26T05:32:26.922Z,922.66
2016-10-26T05:33:39.976Z,922.65
2016-10-26T05:34:53.559Z,922.59
2016-10-26T05:36:06.575Z,922.56
2016-10-26T05:37:19.072Z,922.62
2016-10-26T05:38:32.675Z,922.46
2016-10-26T05:39:45.722Z,922.51
2016-10-26T05:40:59.289Z,922.42
2016-10-26T05:42:11.268Z,922.36
2016-10-26T05:43:24.392Z,922.36
2016-10-26T05:44:38.059Z,922.36
2016-10-26T05:45:51.639Z,922.28
2016-10-26T05:47:05.239Z,922.27
2016-10-26T05:48:18.783Z,922.25
2016-10-26T05:49:32.387Z,922.21
2016-10-26T05:50:45.948Z,922.28
2016-10-26T05:51:59.003Z,922.32
2016-10-26T05:53:12.609Z,922.25
2016-10-26T05:54:26.209Z,922.27
2016-10-26T05:55:38.229Z,922.24
2016-10-26T05:56:51.352Z,922.35
2016-10-26T05:58:04.896Z,922.24
2016-10-26T05:59:17.951Z,922.28
2016-10-26T06:00:30.478Z,922.33
2016-10-26T06:01:43.489Z,922.3
2016-10-26T06:02:57.129Z,922.29
2016-10-26T06:04:10.180Z,922.36
2016-10-26T06:05:22.733Z,922.18
2016-10-26T06:06:35.223Z,922.24
2016-10-26T06:07:48.818Z,922.31
2016-10-26T06:09:01.364Z,922.32
2016-10-26T06:10:14.435Z,922.3
2016-10-26T06:11:27.407Z,922.28
2016-10-26T06:12:40.488Z,922.33
2016-10-26T06:13:53.550Z,922.25
2016-10-26T06:15:07.071Z,922.24
2016-10-26T06:16:20.661Z,922.28
2016-10-26T06:17:33.728Z,922.12
2016-10-26T06:18:47.287Z,922.12
2016-10-26T06:20:00.325Z,922.1
2016-10-26T06:21:12.366Z,922.11
2016-10-26T06:22:25.411Z,922.12
2016-10-26T06:23:37.901Z,922.18
2016-10-26T06:24:50.992Z,922.19
2016-10-26T06:26:03.000Z,922.18
2016-10-26T06:27:15.475Z,922.18
2016-10-26T06:28:28.507Z,922.2
2016-10-26T06:29:41.090Z,922.18
2016-10-26T06:30:54.156Z,922.21
2016-10-26T06:32:07.163Z,922.16
2016-10-26T06:33:20.798Z,922.18
2016-10-26T06:34:34.391Z,922.2
2016-10-26T06:35:47.395Z,922.19
2016-10-26T06:37:01.013Z,922.16
2016-10-26T06:38:14.073Z,922.13
2016-10-26T06:39:27.623Z,922.14
2016-10-26T06:40:39.623Z,922.21
2016-10-26T06:41:52.146Z,922.18
2016-10-26T06:43:05.208Z,922.16
2016-10-26T06:44:18.723Z,922.08
2016-10-26T06:45:31.229Z,922.14
2016-10-26T06:46:44.275Z,922.15
2016-10-26T06:47:57.329Z,922.13
2016-10-26T06:49:09.831Z,922.16
2016-10-26T06:50:23.413Z,922.13
2016-10-26T06:51:36.473Z,922.11
2016-10-26T06:52:50.138Z,922.1
2016-10-26T06:54:02.649Z,922.09
2016-10-26T06:55:15.680Z,922.08
2016-10-26T06:56:28.218Z,922.11
2016-10-26T06:57:40.717Z,922.11
2016-10-26T06:58:53.807Z,922.13
2016-10-26T07:00:06.826Z,922.13
2016-10-26T07:01:18.832Z,922.16
2016-10-26T07:02:32.411Z,922.17
2016-10-26T07:03:45.451Z,922.15
2016-10-26T07:04:57.953Z,922.16
2016-10-26T07:06:10.492Z,922.19
2016-10-26T07:07:23.522Z,922.18
2016-10-26T07:08:36.622Z,922.17
2016-10-26T07:09:49.638Z,922.14
2016-10-26T07:11:01.606Z,922.16
2016-10-26T07:12:15.201Z,922.14
2016-10-26T07:13:28.833Z,922.18
2016-10-26T07:14:41.317Z,922.17
2016-10-26T07:15:53.266Z,922.18
2016-10-26T07:17:06.828Z,922.19
2016-10-26T07:18:19.359Z,922.1
2016-10-26T07:19:31.872Z,922.17
2016-10-26T07:20:45.444Z,922.09
2016-10-26T07:21:58.613Z,922.15
2016-10-26T07:23:12.170Z,922.14
2016-10-26T07:24:25.260Z,922.13
2016-10-26T07:25:38.857Z,922.14
2016-10-26T07:26:51.925Z,922.11
2016-10-26T07:28:04.446Z,922.09
2016-10-26T07:29:17.453Z,922.11
2016-10-26T07:30:30.565Z,922.09
2016-10-26T07:31:43.094Z,922.11
2016-10-26T07:32:55.069Z,922.08
2016-10-26T07:34:08.658Z,922.11
2016-10-26T07:35:20.744Z,922.12
2016-10-26T07:36:32.751Z,922.13
2016-10-26T07:37:45.799Z,922.17
2016-10-26T07:38:58.857Z,922.2
2016-10-26T07:40:12.414Z,922.17
2016-10-26T07:41:25.966Z,922.16
2016-10-26T07:42:39.535Z,922.1
2016-10-26T07:43:53.156Z,922.13
2016-10-26T07:45:05.709Z,922.12
2016-10-26T07:46:18.791Z,922.11
2016-10-26T07:47:32.470Z,922.1
2016-10-26T07:48:45.013Z,922.09
2016-10-26T07:49:58.026Z,922.07
2016-10-26T07:51:11.583Z,922.11
2016-10-26T07:52:55.800Z,922.18
2016-10-26T07:54:08.807Z,922.12
2016-10-26T07:55:22.319Z,922.13
2016-10-26T07:56:34.343Z,922.17
2016-10-26T07:57:46.881Z,922.2
2016-10-26T07:58:59.394Z,922.27
2016-10-26T08:00:11.390Z,922.26
2016-10-26T08:01:24.488Z,922.23
2016-10-26T08:02:36.970Z,922.23
2016-10-26T08:03:48.982Z,922.21
2016-10-26T08:05:02.592Z,922.24
2016-10-26T08:06:14.079Z,922.28
2016-10-26T08:07:26.608Z,922.2
2016-10-26T08:08:39.653Z,922.24
2016-10-26T08:09:52.743Z,922.22
2016-10-26T08:11:05.290Z,922.31
2016-10-26T08:12:48.970Z,922.29
2016-10-26T08:14:01.986Z,922.32
2016-10-26T08:15:13.996Z,922.3
2016-10-26T08:16:27.010Z,922.35
2016-10-26T08:17:39.565Z,922.36
2016-10-26T08:18:52.692Z,922.33
2016-10-26T08:20:05.708Z,922.32
2016-10-26T08:21:18.319Z,922.37
2016-10-26T08:22:31.444Z,922.38
2016-10-26T08:23:44.523Z,922.46
2016-10-26T08:24:56.462Z,922.46
2016-10-26T08:26:10.003Z,922.5
2016-10-26T08:27:23.562Z,922.45
2016-10-26T08:28:37.103Z,922.53
2016-10-26T08:29:50.676Z,922.43
2016-10-26T08:31:03.704Z,922.4
2016-10-26T08:32:16.736Z,922.39
2016-10-26T08:33:30.260Z,922.4
2016-10-26T08:34:43.305Z,922.41
2016-10-26T08:35:56.947Z,922.42
2016-10-26T08:37:09.499Z,922.37
2016-10-26T08:38:22.037Z,922.35
2016-10-26T08:39:34.058Z,922.35
2016-10-26T08:40:47.059Z,922.36
2016-10-26T08:41:58.501Z,922.32
2016-10-26T08:43:11.992Z,922.38
2016-10-26T08:44:25.036Z,922.33
2016-10-26T08:45:37.531Z,922.33
2016-10-26T08:46:51.107Z,922.33
2016-10-26T08:48:03.600Z,922.38
2016-10-26T08:49:16.723Z,922.42
2016-10-26T08:50:30.284Z,922.4
2016-10-26T08:51:43.339Z,922.43
2016-10-26T08:52:56.355Z,922.45
2016-10-26T08:54:08.894Z,922.44
2016-10-26T08:55:20.905Z,922.43
2016-10-26T08:56:33.400Z,922.46
2016-10-26T08:57:45.953Z,922.47
2016-10-26T08:58:59.490Z,922.44
2016-10-26T09:00:12.508Z,922.46
2016-10-26T09:01:26.105Z,922.43
2016-10-26T09:02:39.155Z,922.47
2016-10-26T09:03:52.168Z,922.45
2016-10-26T09:05:05.744Z,922.49
2016-10-26T09:06:19.321Z,922.46
2016-10-26T09:07:32.923Z,922.48
2016-10-26T09:08:45.931Z,922.49
2016-10-26T09:09:59.531Z,922.55
2016-10-26T09:11:12.555Z,922.67
2016-10-26T09:12:25.087Z,922.67
2016-10-26T09:13:37.598Z,922.66
2016-10-26T09:14:50.730Z,922.66
2016-10-26T09:16:02.730Z,922.66
2016-10-26T09:17:15.801Z,922.64
2016-10-26T09:18:28.347Z,922.63
2016-10-26T09:19:41.381Z,922.67
2016-10-26T09:20:54.441Z,922.72
2016-10-26T09:22:07.018Z,922.71
2016-10-26T09:23:19.594Z,922.76
2016-10-26T09:24:32.749Z,922.82
2016-10-26T09:25:46.359Z,922.81
2016-10-26T09:26:59.406Z,922.8
2016-10-26T09:28:12.450Z,922.84
2016-10-26T09:29:25.459Z,922.82
2016-10-26T09:30:39.031Z,922.79
2016-10-26T09:31:52.607Z,922.83
2016-10-26T09:33:05.169Z,922.79
2016-10-26T09:34:18.720Z,922.8
2016-10-26T09:35:31.788Z,922.82
2016-10-26T09:36:44.899Z,922.84
2016-10-26T09:37:57.900Z,922.83
2016-10-26T09:39:10.431Z,922.8
2016-10-26T09:40:22.977Z,922.83
2016-10-26T09:41:36.607Z,922.86
2016-10-26T09:42:49.153Z,922.86
2016-10-26T09:44:02.773Z,922.86
2016-10-26T09:45:15.899Z,922.84
2016-10-26T09:46:28.516Z,922.88
2016-10-26T09:47:41.571Z,922.92
2016-10-26T09:48:54.597Z,922.91
2016-10-26T09:50:08.141Z,922.91
2016-10-26T09:51:21.643Z,922.91
2016-10-26T09:52:34.204Z,922.98
2016-10-26T09:53:46.210Z,922.92
2016-10-26T09:54:58.682Z,922.93
2016-10-26T09:56:11.227Z,922.89
2016-10-26T09:57:23.725Z,922.84
2016-10-26T09:58:36.257Z,922.85
2016-10-26T09:59:49.335Z,922.84
2016-10-26T10:01:02.338Z,922.87
2016-10-26T10:02:15.938Z,922.87
2016-10-26T10:03:29.436Z,922.91
2016-10-26T10:04:42.954Z,922.91
2016-10-26T10:05:55.521Z,922.9
2016-10-26T10:07:08.582Z,922.94
2016-10-26T10:08:21.609Z,922.94
2016-10-26T10:09:35.208Z,923.01
2016-10-26T10:10:48.170Z,923.04
2016-10-26T10:12:01.266Z,923.06
2016-10-26T10:13:14.262Z,923.05
2016-10-26T10:14:26.781Z,923.08
2016-10-26T10:15:39.354Z,923.06
2016-10-26T10:16:52.970Z,923.05
2016-10-26T10:18:06.065Z,923.05
2016-10-26T10:19:18.032Z,923.08
2016-10-26T10:20:31.081Z,923.18
2016-10-26T10:21:44.138Z,923.17
2016-10-26T10:22:57.707Z,923.23
2016-10-26T10:24:09.165Z,923.27
2016-10-26T10:25:21.664Z,923.28
2016-10-26T10:26:33.639Z,923.26
2016-10-26T10:27:46.187Z,923.25
2016-10-26T10:28:58.723Z,923.23
2016-10-26T10:30:11.186Z,923.2
2016-10-26T10:31:24.282Z,923.21
2016-10-26T10:32:36.843Z,923.22
2016-10-26T10:33:48.848Z,923.15
2016-10-26T10:35:00.864Z,923.2
2016-10-26T10:36:13.395Z,923.32
2016-10-26T10:37:25.942Z,923.18
2016-10-26T10:38:39.012Z,923.17
2016-10-26T10:39:52.015Z,923.19
2016-10-26T10:41:04.529Z,923.21
2016-10-26T10:42:18.065Z,923.23
2016-10-26T10:43:30.641Z,923.24
2016-10-26T10:44:43.834Z,923.17
2016-10-26T10:45:56.396Z,923.14
2016-10-26T10:47:08.909Z,923.28
2016-10-26T10:48:21.466Z,923.38
2016-10-26T10:49:33.503Z,923.42
2016-10-26T10:50:47.093Z,923.37
2016-10-26T10:51:59.076Z,923.45
2016-10-26T10:53:11.569Z,923.44
2016-10-26T10:54:25.179Z,923.32
2016-10-26T10:55:37.725Z,923.31
2016-10-26T10:56:50.784Z,923.29
2016-10-26T10:58:03.852Z,923.3
2016-10-26T10:59:16.943Z,923.38
2016-10-26T11:00:30.048Z,923.3
2016-10-26T11:01:43.144Z,923.27
2016-10-26T11:02:55.689Z,923.25
2016-10-26T11:04:08.797Z,923.29
2016-10-26T11:05:21.855Z,923.4
2016-10-26T11:06:34.927Z,923.4
2016-10-26T11:07:47.479Z,923.46
2016-10-26T11:09:00.021Z,923.34
2016-10-26T11:10:13.049Z,923.36
2016-10-26T11:11:26.581Z,923.36
2016-10-26T11:12:39.622Z,923.25
2016-10-26T11:13:51.659Z,923.32
2016-10-26T11:15:03.136Z,923.31
2016-10-26T11:16:16.226Z,923.3
2016-10-26T11:17:28.211Z,923.33
2016-10-26T11:18:41.799Z,923.29
2016-10-26T11:19:54.359Z,923.32
2016-10-26T11:21:05.793Z,923.3
2016-10-26T11:22:17.779Z,923.28
2016-10-26T11:23:30.459Z,923.35
2016-10-26T11:24:43.447Z,923.38
2016-10-26T11:25:56.443Z,923.38
2016-10-26T11:27:08.938Z,923.41
2016-10-26T11:28:22.447Z,923.37
2016-10-26T11:29:34.946Z,923.38
2016-10-26T11:30:47.978Z,923.32
2016-10-26T11:32:01.047Z,923.39
2016-10-26T11:33:13.572Z,923.25
2016-10-26T11:34:26.579Z,923.32
2016-10-26T11:35:39.629Z,923.18
2016-10-26T11:36:53.237Z,923.2
2016-10-26T11:38:06.281Z,923.22
2016-10-26T11:39:18.302Z,923.22
2016-10-26T11:40:31.919Z,923.29
2016-10-26T11:41:44.960Z,923.39
2016-10-26T11:42:58.033Z,923.41
2016-10-26T11:44:11.594Z,923.37
2016-10-26T11:45:24.628Z,923.45
2016-10-26T11:46:37.190Z,923.39
2016-10-26T11:47:50.248Z,923.41
2016-10-26T11:49:03.352Z,923.4
2016-10-26T11:50:16.452Z,923.51
2016-10-26T11:51:30.049Z,923.52
2016-10-26T11:52:43.111Z,923.52
2016-10-26T11:53:56.689Z,923.55
2016-10-26T11:55:09.718Z,923.57
2016-10-26T11:56:22.801Z,923.65
2016-10-26T11:57:35.736Z,923.58
2016-10-26T11:58:49.253Z,923.55
2016-10-26T12:00:02.305Z,923.55
2016-10-26T12:01:15.391Z,923.52
2016-10-26T12:02:28.477Z,923.52
2016-10-26T12:03:41.030Z,923.51
2016-10-26T12:04:54.597Z,923.56
2016-10-26T12:06:08.102Z,923.58
2016-10-26T12:07:20.646Z,923.66
2016-10-26T12:08:33.612Z,923.64
2016-10-26T12:09:46.583Z,923.52
2016-10-26T12:10:59.545Z,923.58
2016-10-26T12:12:12.551Z,923.6
2016-10-26T12:13:25.548Z,923.63
2016-10-26T12:14:38.071Z,923.6
2016-10-26T12:15:50.089Z,923.58
2016-10-26T12:17:03.177Z,923.52
2016-10-26T12:18:16.259Z,923.57
2016-10-26T12:19:29.323Z,923.59
2016-10-26T12:20:41.802Z,923.48
2016-10-26T12:21:54.316Z,923.46
2016-10-26T12:23:07.309Z,923.41
2016-10-26T12:24:20.867Z,923.41
2016-10-26T12:25:34.432Z,923.56
2016-10-26T12:26:47.998Z,923.56
2016-10-26T12:28:00.488Z,923.44
2016-10-26T12:29:13.747Z,923.68
2016-10-26T12:30:26.908Z,923.56
2016-10-26T12:31:39.410Z,923.49
2016-10-26T12:32:51.920Z,923.48
2016-10-26T12:34:04.953Z,923.46
2016-10-26T12:35:18.005Z,923.44
2016-10-26T12:36:30.936Z,923.4
2016-10-26T12:37:44.490Z,923.38
2016-10-26T12:38:57.576Z,923.42
2016-10-26T12:40:10.037Z,923.41
2016-10-26T12:41:23.158Z,923.36
2016-10-26T12:42:35.625Z,923.36
2016-10-26T12:43:48.705Z,923.29
2016-10-26T12:45:00.674Z,923.36
2016-10-26T12:46:13.177Z,923.33
2016-10-26T12:47:25.210Z,923.4
2016-10-26T12:48:38.252Z,923.37
2016-10-26T12:49:50.821Z,923.21
2016-10-26T12:51:03.409Z,923.26
2016-10-26T12:52:16.514Z,923.28
2016-10-26T12:53:27.932Z,923.25
2016-10-26T12:54:40.384Z,923.3
2016-10-26T12:55:51.846Z,923.31
2016-10-26T12:57:03.761Z,923.32
2016-10-26T12:58:15.170Z,923.3
2016-10-26T12:59:27.168Z,923.27
2016-10-26T13:00:39.673Z,923.19
2016-10-26T13:01:52.118Z,923.09
2016-10-26T13:03:05.113Z,923.22
2016-10-26T13:04:18.110Z,923.2
2016-10-26T13:05:31.698Z,923.22
2016-10-26T13:06:44.813Z,923.26
2016-10-26T13:07:57.841Z,923.23
2016-10-26T13:09:10.415Z,923.26
2016-10-26T13:10:23.532Z,923.27
2016-10-26T13:11:36.607Z,923.26
2016-10-26T13:12:49.128Z,923.29
2016-10-26T13:14:01.705Z,923.22
2016-10-26T13:15:15.296Z,923.23
2016-10-26T13:16:27.801Z,923.16
2016-10-26T13:17:41.417Z,923.21
2016-10-26T13:18:53.930Z,923.21
2016-10-26T13:20:07.024Z,923.16
2016-10-26T13:21:20.110Z,923.14
2016-10-26T13:22:33.768Z,923.16
2016-10-26T13:23:46.322Z,923.13
2016-10-26T13:24:59.282Z,923.02
2016-10-26T13:26:12.877Z,922.96
2016-10-26T13:27:25.355Z,923
2016-10-26T13:28:38.472Z,922.93
2016-10-26T13:29:51.478Z,922.98
2016-10-26T13:31:04.006Z,923.01
2016-10-26T13:32:17.118Z,923.05
2016-10-26T13:33:28.595Z,923.02
2016-10-26T13:34:42.126Z,922.94
2016-10-26T13:35:55.709Z,922.96
2016-10-26T13:37:08.191Z,922.97
2016-10-26T13:38:21.848Z,922.89
2016-10-26T13:39:34.894Z,922.87
2016-10-26T13:40:48.543Z,922.81
2016-10-26T13:42:02.111Z,922.77
2016-10-26T13:43:15.186Z,922.81
2016-10-26T13:44:28.296Z,922.78
2016-10-26T13:45:41.373Z,922.74
2016-10-26T13:46:54.463Z,922.78
2016-10-26T13:48:07.544Z,922.78
2016-10-26T13:49:21.142Z,922.82
2016-10-26T13:50:33.683Z,922.83
2016-10-26T13:51:46.780Z,922.85
2016-10-26T13:52:58.817Z,922.78
2016-10-26T13:54:12.367Z,922.73
2016-10-26T13:55:24.320Z,922.69
2016-10-26T13:56:37.314Z,922.68
2016-10-26T13:57:50.361Z,922.67
2016-10-26T13:59:02.865Z,922.64
2016-10-26T14:00:15.903Z,922.67
2016-10-26T14:01:29.484Z,922.61
2016-10-26T14:02:42.082Z,922.63
2016-10-26T14:03:54.111Z,922.57
2016-10-26T14:05:07.215Z,922.56
2016-10-26T14:06:19.748Z,922.49
2016-10-26T14:07:33.335Z,922.5
2016-10-26T14:08:46.405Z,922.49
2016-10-26T14:10:00.020Z,922.49
2016-10-26T14:11:13.027Z,922.43
2016-10-26T14:12:25.551Z,922.49
2016-10-26T14:13:38.607Z,922.46
2016-10-26T14:14:51.587Z,922.45
2016-10-26T14:16:04.081Z,922.46
2016-10-26T14:17:17.079Z,922.46
2016-10-26T14:18:29.583Z,922.41
2016-10-26T14:19:43.210Z,922.4
2016-10-26T14:20:56.926Z,922.41
2016-10-26T14:22:10.538Z,922.4
2016-10-26T14:23:24.179Z,922.41
2016-10-26T14:24:37.269Z,922.37
2016-10-26T14:25:51.205Z,922.32
2016-10-26T14:27:04.850Z,922.29
2016-10-26T14:28:18.042Z,922.32
2016-10-26T14:29:31.585Z,922.27
2016-10-26T14:30:45.170Z,922.3
2016-10-26T14:31:58.224Z,922.31
2016-10-26T14:33:11.807Z,922.29
2016-10-26T14:34:24.850Z,922.25
2016-10-26T14:35:37.424Z,922.26
2016-10-26T14:36:50.539Z,922.2
2016-10-26T14:38:04.053Z,922.19
2016-10-26T14:39:17.260Z,922.06
2016-10-26T14:40:30.489Z,922.15
2016-10-26T14:41:43.563Z,922.13
2016-10-26T14:42:56.065Z,922.13
2016-10-26T14:44:07.991Z,922.12
2016-10-26T14:45:21.620Z,922.06
2016-10-26T14:46:34.628Z,922.08
2016-10-26T14:47:47.136Z,922.07
2016-10-26T14:49:00.190Z,922.06
2016-10-26T14:50:12.741Z,922.03
2016-10-26T14:51:25.837Z,922.06
2016-10-26T14:52:38.361Z,922.04
2016-10-26T14:53:50.376Z,922.02
2016-10-26T14:55:02.878Z,921.99
2016-10-26T14:56:16.038Z,921.97
2016-10-26T14:57:29.086Z,921.93
2016-10-26T14:58:41.545Z,921.92
2016-10-26T14:59:54.077Z,921.88
2016-10-26T15:01:07.600Z,921.89
2016-10-26T15:02:21.160Z,921.85
2016-10-26T15:03:34.310Z,921.89
2016-10-26T15:04:47.315Z,921.84
2016-10-26T15:06:00.274Z,921.82
2016-10-26T15:07:13.285Z,921.72
2016-10-26T15:08:26.854Z,921.75
2016-10-26T15:09:39.829Z,921.73
2016-10-26T15:10:52.876Z,921.72
2016-10-26T15:12:06.589Z,921.71
2016-10-26T15:13:19.613Z,921.65
2016-10-26T15:14:32.668Z,921.64
2016-10-26T15:15:45.738Z,921.65